Time;durP1;ratioP1;P1;durP2;ratioP2;P2;SDS_P1;SDS_P2;PMS_P1;PMS_P2;Temp;Humidity;BMP_temperature;BMP_pressure;BME280_temperature;BME280_humidity;BME280_pressure;Samples;Min_cycle;Max_cycle;Signal;HPM_P1;HPM_P2
2021/10/18 00:00:10;;;;;;;8.82;6.68;;;;;;;5.78;94.20;101555.88;684585;28;3576;-56
2021/10/18 00:00:33;;;;;;;9.52;7.00;;;;;;;5.70;94.55;101560.81;686037;28;1187;-56
2021/10/18 00:00:54;;;;;;;9.20;7.10;;;;;;;5.66;94.53;101558.97;685997;28;1241;-57
2021/10/18 00:01:14;;;;;;;8.57;7.20;;;;;;;5.67;94.52;101559.88;686872;28;4638;-57
2021/10/18 00:01:35;;;;;;;8.43;7.10;;;;;;;5.66;94.85;101561.56;686323;28;1151;-59
2021/10/18 00:01:55;;;;;;;9.80;7.00;;;;;;;5.71;94.09;101565.19;686117;28;1392;-56
2021/10/18 00:02:15;;;;;;;9.85;6.90;;;;;;;5.66;93.86;101558.97;686411;28;1088;-52
2021/10/18 00:02:36;;;;;;;8.37;6.57;;;;;;;5.61;93.80;101560.56;684714;28;1085;-55
2021/10/18 00:02:56;;;;;;;9.07;6.90;;;;;;;5.61;93.89;101560.56;683857;28;3189;-55
2021/10/18 00:03:19;;;;;;;9.48;7.07;;;;;;;5.67;93.97;101559.88;683499;28;1116;-57
2021/10/18 00:03:39;;;;;;;8.55;6.97;;;;;;;5.65;94.45;101565.03;683993;28;1338;-56
2021/10/18 00:03:59;;;;;;;9.63;6.80;;;;;;;5.65;94.32;101561.53;682898;28;4657;-56
2021/10/18 00:04:20;;;;;;;9.50;6.73;;;;;;;5.66;94.41;101558.97;683896;28;1378;-56
2021/10/18 00:04:41;;;;;;;8.43;6.75;;;;;;;5.66;94.28;101561.56;683865;28;1168;-53
2021/10/18 00:05:03;;;;;;;8.37;6.63;;;;;;;5.69;94.26;101563.38;686063;28;1073;-56
2021/10/18 00:05:23;;;;;;;8.07;6.80;;;;;;;5.65;94.17;101561.53;685912;28;1172;-55
2021/10/18 00:05:44;;;;;;;10.50;6.68;;;;;;;5.65;94.34;101559.84;685996;28;1136;-53
2021/10/18 00:06:04;;;;;;;8.37;6.80;;;;;;;5.65;94.73;101566.72;685317;28;3143;-54
2021/10/18 00:06:26;;;;;;;9.43;7.05;;;;;;;5.62;94.99;101562.31;686382;28;1126;-56
2021/10/18 00:06:46;;;;;;;8.98;7.07;;;;;;;5.64;95.19;101560.66;686480;28;1218;-56
2021/10/18 00:07:06;;;;;;;8.70;6.93;;;;;;;5.62;95.02;101562.31;685817;28;4423;-56
2021/10/18 00:07:27;;;;;;;8.97;7.00;;;;;;;5.61;94.90;101565.75;685978;28;1067;-55
2021/10/18 00:07:47;;;;;;;8.80;7.00;;;;;;;5.62;94.70;101562.31;685306;28;1306;-55
2021/10/18 00:08:07;;;;;;;9.00;6.90;;;;;;;5.66;94.82;101558.97;686747;28;1317;-55
2021/10/18 00:08:28;;;;;;;9.37;6.93;;;;;;;5.66;94.71;101558.97;686638;28;1145;-52
2021/10/18 00:08:48;;;;;;;9.70;7.03;;;;;;;5.63;94.63;101558.88;685696;28;1163;-57
2021/10/18 00:09:12;;;;;;;8.57;6.93;;;;;;;5.65;94.41;101561.53;686277;28;3868;-54
2021/10/18 00:09:34;;;;;;;7.38;6.20;;;;;;;5.77;94.06;101557.59;686328;28;1450;-57
2021/10/18 00:09:54;;;;;;;8.65;6.57;;;;;;;5.86;93.95;101561.31;685471;28;1033;-56
2021/10/18 00:10:15;;;;;;;8.50;6.60;;;;;;;5.84;93.62;101550.84;685699;28;4592;-56
2021/10/18 00:10:35;;;;;;;8.35;6.50;;;;;;;5.84;93.11;101555.16;686124;28;1050;-55
2021/10/18 00:10:56;;;;;;;8.15;6.22;;;;;;;5.88;93.01;101554.44;684878;28;1378;-53
2021/10/18 00:11:18;;;;;;;7.88;5.95;;;;;;;6.01;93.07;101559.19;685551;28;1114;-56
2021/10/18 00:11:39;;;;;;;7.78;6.13;;;;;;;6.08;91.85;101558.50;686569;28;1044;-54
2021/10/18 00:11:59;;;;;;;7.57;6.23;;;;;;;5.96;92.20;101560.72;685939;28;1297;-55
2021/10/18 00:12:20;;;;;;;8.07;6.13;;;;;;;5.87;92.66;101557.84;686247;28;3205;-55
2021/10/18 00:12:41;;;;;;;8.27;6.37;;;;;;;5.79;92.96;101555.91;685895;28;3894;-53
2021/10/18 00:13:02;;;;;;;9.00;6.20;;;;;;;5.86;92.89;101561.31;686255;28;5280;-55
2021/10/18 00:13:22;;;;;;;9.20;6.40;;;;;;;6.01;93.04;101564.38;685933;28;1635;-53
2021/10/18 00:13:43;;;;;;;7.33;6.10;;;;;;;6.12;92.25;101557.75;687182;28;1112;-54
2021/10/18 00:14:04;;;;;;;8.93;6.45;;;;;;;6.22;91.71;101563.22;685870;28;1074;-56
2021/10/18 00:14:26;;;;;;;8.23;6.45;;;;;;;6.31;91.13;101568.63;682323;28;1160;-56
2021/10/18 00:14:46;;;;;;;7.78;6.47;;;;;;;6.35;91.44;101565.28;681493;28;1157;-57
2021/10/18 00:15:08;;;;;;;9.18;6.63;;;;;;;6.32;90.72;101562.63;682137;28;1053;-55
2021/10/18 00:15:29;;;;;;;9.13;6.40;;;;;;;6.32;90.87;101561.75;681477;28;3799;-57
2021/10/18 00:15:50;;;;;;;9.15;6.28;;;;;;;6.30;90.63;101566.91;682717;28;1219;-53
2021/10/18 00:16:11;;;;;;;8.57;6.43;;;;;;;6.24;90.73;101564.13;683443;28;4549;-57
2021/10/18 00:16:31;;;;;;;8.90;6.43;;;;;;;6.14;91.19;101571.63;686177;28;1176;-53
2021/10/18 00:16:53;;;;;;;9.80;6.97;;;;;;;6.02;91.43;101571.28;685020;28;2767;-56
2021/10/18 00:17:15;;;;;;;9.70;6.70;;;;;;;6.01;91.88;101566.06;686481;28;1061;-56
2021/10/18 00:17:36;;;;;;;8.43;6.30;;;;;;;6.00;92.05;101569.53;686227;28;1069;-55
2021/10/18 00:17:59;;;;;;;8.30;6.38;;;;;;;5.98;92.17;101566.84;685475;28;868;-56
2021/10/18 00:18:19;;;;;;;9.25;6.70;;;;;;;5.94;92.67;101570.16;685825;28;3594;-57
2021/10/18 00:18:40;;;;;;;8.23;6.57;;;;;;;5.89;92.74;101576.97;685489;28;3497;-56
2021/10/18 00:19:00;;;;;;;8.82;6.90;;;;;;;5.82;93.16;101569.84;685561;28;4651;-55
2021/10/18 00:19:21;;;;;;;9.40;6.80;;;;;;;5.77;93.51;101574.88;686439;28;1156;-55
2021/10/18 00:19:41;;;;;;;9.73;6.60;;;;;;;5.74;93.27;101573.06;685098;28;1121;-53
2021/10/18 00:20:08;;;;;;;9.73;7.00;;;;;;;5.73;93.26;101579.09;685982;28;1184;-53
2021/10/18 00:20:29;;;;;;;10.32;7.00;;;;;;;5.71;93.75;101580.75;686857;28;1247;-56
2021/10/18 00:20:49;;;;;;;9.40;6.80;;;;;;;5.69;93.35;101574.66;685959;28;1386;-57
2021/10/18 00:21:10;;;;;;;9.52;6.68;;;;;;;5.68;93.75;101572.03;686530;28;1267;-54
2021/10/18 00:21:31;;;;;;;9.90;6.85;;;;;;;5.68;94.05;101575.47;685904;28;3075;-56
2021/10/18 00:21:51;;;;;;;9.47;6.90;;;;;;;5.66;93.81;101579.72;685719;28;3595;-54
2021/10/18 00:22:11;;;;;;;9.35;7.20;;;;;;;5.64;93.98;101578.81;686098;28;4629;-53
2021/10/18 00:22:32;;;;;;;10.03;7.00;;;;;;;5.62;94.00;101573.59;684936;28;1583;-53
2021/10/18 00:22:55;;;;;;;8.65;6.85;;;;;;;5.62;94.19;101578.78;685160;28;1039;-53
2021/10/18 00:23:18;;;;;;;9.10;7.07;;;;;;;5.61;94.57;101573.53;683292;28;1164;-56
2021/10/18 00:23:39;;;;;;;9.30;7.20;;;;;;;5.62;94.33;101583.06;683437;28;1140;-55
2021/10/18 00:23:59;;;;;;;9.03;7.10;;;;;;;5.64;94.08;101576.22;682818;28;1993;-55
2021/10/18 00:24:19;;;;;;;9.45;7.05;;;;;;;5.66;94.20;101574.53;683746;28;1076;-53
2021/10/18 00:24:41;;;;;;;9.02;6.68;;;;;;;5.67;93.52;101570.25;681760;28;2622;-56
2021/10/18 00:25:02;;;;;;;9.73;7.10;;;;;;;5.61;94.25;101574.41;682971;28;4382;-53
2021/10/18 00:25:23;;;;;;;9.55;7.15;;;;;;;5.55;94.46;101576.84;685410;28;997;-52
2021/10/18 00:25:43;;;;;;;11.15;7.22;;;;;;;5.46;94.35;101580.00;685189;28;1176;-56
2021/10/18 00:26:04;;;;;;;10.13;7.47;;;;;;;5.45;94.91;101574.78;686895;28;1205;-56
2021/10/18 00:26:24;;;;;;;11.15;7.00;;;;;;;5.45;94.84;101575.69;686290;28;1184;-57
2021/10/18 00:26:45;;;;;;;10.15;7.00;;;;;;;5.44;94.82;101576.50;682666;28;1208;-56
2021/10/18 00:27:05;;;;;;;8.83;6.90;;;;;;;5.45;95.03;101575.69;681644;28;1228;-55
2021/10/18 00:27:25;;;;;;;8.87;6.90;;;;;;;5.53;94.79;101577.63;680971;28;2150;-56
2021/10/18 00:27:46;;;;;;;8.75;6.57;;;;;;;5.57;94.22;101569.97;679657;28;3383;-54
2021/10/18 00:28:07;;;;;;;8.70;7.05;;;;;;;5.57;94.07;101572.56;678617;28;5468;-53
2021/10/18 00:28:28;;;;;;;9.57;7.00;;;;;;;5.55;94.10;101575.94;681214;28;1168;-57
2021/10/18 00:28:48;;;;;;;10.33;6.93;;;;;;;5.57;94.20;101576.88;679920;28;1097;-56
2021/10/18 00:29:08;;;;;;;9.60;6.57;;;;;;;5.63;94.23;101574.47;684166;28;1264;-55
2021/10/18 00:29:29;;;;;;;9.00;6.43;;;;;;;5.72;93.55;101573.84;684388;28;1208;-54
2021/10/18 00:29:49;;;;;;;7.60;6.40;;;;;;;5.73;93.14;101571.31;680687;28;1220;-53
2021/10/18 00:30:10;;;;;;;8.40;6.20;;;;;;;5.72;92.83;101577.34;681834;28;1409;-54
2021/10/18 00:30:31;;;;;;;8.05;6.45;;;;;;;5.69;92.92;101566.88;682795;28;1184;-56
2021/10/18 00:30:52;;;;;;;8.00;6.30;;;;;;;5.68;93.58;101574.63;679698;28;3327;-53
2021/10/18 00:31:12;;;;;;;8.57;6.60;;;;;;;5.64;93.67;101573.63;680398;28;5636;-54
2021/10/18 00:31:33;;;;;;;8.70;6.72;;;;;;;5.62;94.02;101572.69;681062;28;1406;-55
2021/10/18 00:31:53;;;;;;;9.50;6.70;;;;;;;5.58;93.72;101570.84;683122;28;1419;-54
2021/10/18 00:32:14;;;;;;;8.50;6.63;;;;;;;5.61;93.71;101571.81;684628;28;1382;-52
2021/10/18 00:32:34;;;;;;;9.32;6.63;;;;;;;5.60;93.22;101572.66;683940;28;1050;-56
2021/10/18 00:32:55;;;;;;;9.20;6.43;;;;;;;5.56;93.13;101568.19;683804;28;1255;-56
2021/10/18 00:33:15;;;;;;;10.07;6.88;;;;;;;5.54;93.52;101571.56;682736;28;1053;-56
2021/10/18 00:33:36;;;;;;;10.13;6.77;;;;;;;5.53;93.71;101577.63;682783;28;3119;-56
2021/10/18 00:33:56;;;;;;;9.25;6.50;;;;;;;5.54;93.32;101577.66;679888;28;2278;-56
2021/10/18 00:34:16;;;;;;;8.13;6.30;;;;;;;5.55;93.59;101586.31;680477;28;4607;-53
2021/10/18 00:34:37;;;;;;;8.30;6.67;;;;;;;5.52;93.80;101581.03;678116;28;1086;-56
2021/10/18 00:34:57;;;;;;;8.68;6.72;;;;;;;5.51;93.39;101568.91;682351;28;1105;-56
2021/10/18 00:35:18;;;;;;;9.03;6.70;;;;;;;5.50;93.42;101574.91;680107;28;1067;-52
2021/10/18 00:35:38;;;;;;;8.80;6.97;;;;;;;5.48;93.26;101579.19;678913;28;1154;-56
2021/10/18 00:35:58;;;;;;;9.20;6.63;;;;;;;5.51;94.00;101574.97;681679;28;1062;-56
2021/10/18 00:36:19;;;;;;;8.20;6.38;;;;;;;5.55;93.62;101571.66;681162;28;1108;-55
2021/10/18 00:36:39;;;;;;;8.87;6.40;;;;;;;5.66;93.76;101571.94;683658;28;3698;-56
2021/10/18 00:37:00;;;;;;;8.68;6.45;;;;;;;5.73;92.92;101566.13;682307;28;4472;-57
2021/10/18 00:37:20;;;;;;;7.50;6.10;;;;;;;5.78;92.58;101568.84;681254;28;1556;-55
2021/10/18 00:37:40;;;;;;;8.23;6.30;;;;;;;5.79;92.51;101574.09;683041;28;1341;-56
2021/10/18 00:38:01;;;;;;;7.40;6.30;;;;;;;5.79;91.95;101566.28;684789;28;1098;-57
2021/10/18 00:38:21;;;;;;;7.63;6.47;;;;;;;5.74;92.45;101567.88;684217;28;1156;-53
2021/10/18 00:38:41;;;;;;;7.70;6.40;;;;;;;5.72;92.48;101568.66;683564;28;955;-61
2021/10/18 00:39:03;;;;;;;8.30;6.50;;;;;;;5.67;92.70;101570.25;683677;28;1172;-54
2021/10/18 00:39:23;;;;;;;7.63;6.47;;;;;;;5.61;92.77;101573.53;686272;28;4013;-54
2021/10/18 00:39:43;;;;;;;7.90;6.40;;;;;;;5.59;93.12;101576.09;685335;28;3158;-55
2021/10/18 00:40:06;;;;;;;8.23;6.30;;;;;;;5.64;92.74;101568.44;683372;28;4800;-55
2021/10/18 00:40:26;;;;;;;8.27;6.30;;;;;;;5.63;92.96;101569.28;683273;28;1182;-54
2021/10/18 00:40:47;;;;;;;8.75;6.53;;;;;;;5.57;93.34;101572.56;682521;28;1183;-56
2021/10/18 00:41:07;;;;;;;8.90;6.63;;;;;;;5.57;93.64;101576.88;681282;28;1169;-53
2021/10/18 00:41:28;;;;;;;7.65;6.70;;;;;;;5.62;93.16;101571.00;681245;28;1339;-56
2021/10/18 00:41:48;;;;;;;7.63;6.60;;;;;;;5.61;92.62;101565.75;681632;28;1132;-52
2021/10/18 00:42:09;;;;;;;8.13;6.68;;;;;;;5.65;93.28;101570.22;682937;28;1845;-57
2021/10/18 00:42:29;;;;;;;7.90;6.30;;;;;;;5.66;92.62;101568.47;681383;28;1358;-55
2021/10/18 00:42:53;;;;;;;7.60;6.32;;;;;;;5.64;92.28;101568.44;681695;28;3207;-54
2021/10/18 00:43:14;;;;;;;8.27;5.97;;;;;;;5.66;92.62;101574.53;681375;28;4569;-54
2021/10/18 00:43:34;;;;;;;8.63;6.03;;;;;;;5.65;92.46;101567.63;683383;28;1094;-56
2021/10/18 00:43:56;;;;;;;7.60;6.07;;;;;;;5.63;92.20;101571.88;684098;28;1942;-55
2021/10/18 00:44:16;;;;;;;8.23;6.38;;;;;;;5.55;92.91;101573.34;684925;28;1113;-54
2021/10/18 00:44:37;;;;;;;8.97;6.43;;;;;;;5.52;93.29;101581.91;682354;28;1522;-55
2021/10/18 00:44:58;;;;;;;8.52;6.57;;;;;;;5.49;93.31;101573.16;680522;28;1364;-55
2021/10/18 00:45:19;;;;;;;8.30;6.32;;;;;;;5.48;93.49;101574.88;679630;28;1147;-55
2021/10/18 00:45:39;;;;;;;8.25;6.70;;;;;;;5.49;93.50;101570.56;678658;28;1079;-56
2021/10/18 00:46:00;;;;;;;8.25;6.47;;;;;;;5.44;93.77;101571.31;677625;28;4558;-57
2021/10/18 00:46:22;;;;;;;7.80;6.17;;;;;;;5.41;93.70;101571.22;677708;28;3607;-55
2021/10/18 00:46:43;;;;;;;7.78;6.53;;;;;;;5.33;94.19;101575.28;681356;28;1174;-53
2021/10/18 00:47:04;;;;;;;7.78;6.50;;;;;;;5.32;93.95;101572.63;682773;28;1638;-55
2021/10/18 00:47:24;;;;;;;9.70;6.60;;;;;;;5.36;93.70;101567.59;684600;28;1081;-56
2021/10/18 00:47:45;;;;;;;10.50;6.50;;;;;;;5.39;93.78;101567.69;685971;28;1385;-55
2021/10/18 00:48:05;;;;;;;7.90;6.33;;;;;;;5.43;93.48;101576.47;687672;28;1049;-53
2021/10/18 00:48:26;;;;;;;7.38;5.93;;;;;;;5.47;93.50;101570.53;685979;28;1228;-55
2021/10/18 00:48:47;;;;;;;8.20;6.05;;;;;;;5.51;93.19;101569.78;686571;28;1231;-57
2021/10/18 00:49:08;;;;;;;7.65;6.03;;;;;;;5.52;93.28;101561.16;686460;28;4410;-53
2021/10/18 00:49:29;;;;;;;7.68;6.60;;;;;;;5.47;93.00;101565.34;685760;28;3718;-54
2021/10/18 00:49:49;;;;;;;8.82;6.75;;;;;;;5.42;93.60;101564.31;686673;28;1172;-53
2021/10/18 00:50:10;;;;;;;9.30;6.50;;;;;;;5.39;93.31;101566.81;686364;28;1115;-55
2021/10/18 00:50:30;;;;;;;7.68;6.25;;;;;;;5.35;93.82;101563.25;684075;28;1216;-53
2021/10/18 00:50:56;;;;;;;7.50;6.10;;;;;;;5.33;93.85;101564.91;683828;28;1126;-55
2021/10/18 00:51:17;;;;;;;9.45;6.78;;;;;;;5.28;93.52;101567.34;683109;28;1094;-53
2021/10/18 00:51:38;;;;;;;10.20;6.95;;;;;;;5.19;93.56;101567.09;683157;28;1188;-56
2021/10/18 00:51:59;;;;;;;8.40;7.00;;;;;;;5.15;94.10;101569.50;683647;28;4614;-56
2021/10/18 00:52:20;;;;;;;8.30;6.70;;;;;;;5.09;94.58;101568.47;684546;28;3461;-55
2021/10/18 00:52:41;;;;;;;8.43;6.70;;;;;;;5.06;94.41;101565.78;686095;28;1264;-55
2021/10/18 00:53:02;;;;;;;8.50;6.73;;;;;;;5.03;94.62;101570.00;686259;28;1256;-53
2021/10/18 00:53:25;;;;;;;7.88;6.38;;;;;;;5.00;94.62;101565.59;682923;28;1044;-55
2021/10/18 00:53:45;;;;;;;8.60;6.32;;;;;;;5.02;95.17;101569.09;682063;28;1216;-56
2021/10/18 00:54:06;;;;;;;10.03;6.67;;;;;;;5.01;95.50;101559.59;681504;28;1161;-56
2021/10/18 00:54:27;;;;;;;9.68;7.03;;;;;;;4.97;95.69;101570.69;682584;28;1192;-56
2021/10/18 00:54:49;;;;;;;9.30;6.78;;;;;;;4.92;95.36;101565.34;682197;28;1168;-53
2021/10/18 00:55:10;;;;;;;9.38;6.80;;;;;;;4.90;96.00;101563.53;680091;28;4337;-54
2021/10/18 00:55:31;;;;;;;8.63;6.80;;;;;;;4.91;95.34;101563.56;679267;28;3383;-56
2021/10/18 00:55:53;;;;;;;9.07;6.70;;;;;;;5.04;95.55;101561.38;675007;29;1493;-55
2021/10/18 00:56:15;;;;;;;9.40;6.95;;;;;;;4.98;94.78;101567.25;674086;29;1215;-56
2021/10/18 00:56:35;;;;;;;9.30;7.00;;;;;;;4.98;95.31;101562.06;676368;29;1186;-55
2021/10/18 00:56:56;;;;;;;9.20;7.10;;;;;;;5.06;94.61;101565.78;676910;29;1051;-54
2021/10/18 00:57:17;;;;;;;9.32;6.55;;;;;;;5.14;95.09;101571.22;679545;28;1106;-53
2021/10/18 00:57:38;;;;;;;9.70;6.60;;;;;;;5.16;94.53;101568.69;680991;28;1077;-57
2021/10/18 00:57:58;;;;;;;9.32;6.85;;;;;;;5.15;94.71;101566.91;683707;28;4572;-54
2021/10/18 00:58:19;;;;;;;8.43;6.72;;;;;;;5.19;94.26;101569.69;685319;28;3098;-55
2021/10/18 00:58:41;;;;;;;8.25;6.32;;;;;;;5.22;94.17;101571.47;685479;28;3533;-57
2021/10/18 00:59:02;;;;;;;8.20;6.53;;;;;;;5.21;94.04;101562.81;686877;28;1237;-57
2021/10/18 00:59:22;;;;;;;7.85;6.82;;;;;;;5.17;94.81;101573.03;685788;28;1096;-55
2021/10/18 00:59:43;;;;;;;8.27;6.80;;;;;;;5.17;94.34;101571.31;686376;28;1006;-52
2021/10/18 01:00:06;;;;;;;8.38;6.70;;;;;;;5.19;94.98;101572.25;687676;28;1191;-52
2021/10/18 01:00:26;;;;;;;7.85;6.40;;;;;;;5.23;93.81;101568.94;687231;28;1168;-54
2021/10/18 01:00:47;;;;;;;9.17;6.63;;;;;;;5.26;93.90;101565.53;685882;28;1084;-56
2021/10/18 01:01:08;;;;;;;8.13;6.85;;;;;;;5.29;93.93;101568.25;685827;28;4434;-54
2021/10/18 01:01:30;;;;;;;8.25;6.70;;;;;;;5.32;93.70;101563.16;686388;28;3048;-55
2021/10/18 01:01:53;;;;;;;8.60;6.55;;;;;;;5.33;93.79;101567.50;684764;28;3360;-55
2021/10/18 01:02:14;;;;;;;8.38;6.97;;;;;;;5.33;93.34;101558.84;683214;28;1409;-57
2021/10/18 01:02:34;;;;;;;8.77;6.90;;;;;;;5.36;93.79;101565.00;681582;28;1531;-56
2021/10/18 01:02:55;;;;;;;8.52;6.60;;;;;;;5.43;93.08;101569.53;681944;28;1058;-55
2021/10/18 01:03:16;;;;;;;7.90;6.27;;;;;;;5.46;92.86;101566.16;681305;28;1161;-55
2021/10/18 01:03:37;;;;;;;8.52;6.45;;;;;;;5.54;93.03;101567.28;678877;29;1157;-57
2021/10/18 01:04:02;;;;;;;8.80;6.63;;;;;;;5.46;92.26;101569.63;679331;28;1903;-55
2021/10/18 01:04:23;;;;;;;8.40;6.57;;;;;;;5.38;92.34;101567.66;682471;28;5009;-54
2021/10/18 01:04:44;;;;;;;9.17;6.77;;;;;;;5.34;92.77;101564.06;680409;28;3429;-55
2021/10/18 01:05:06;;;;;;;8.82;6.75;;;;;;;5.31;93.35;101561.38;678927;28;3605;-55
2021/10/18 01:05:27;;;;;;;8.10;6.57;;;;;;;5.39;93.38;101570.28;682310;28;1097;-56
2021/10/18 01:05:48;;;;;;;7.57;6.55;;;;;;;5.44;93.10;101560.94;683033;28;1108;-56
2021/10/18 01:06:09;;;;;;;8.00;6.50;;;;;;;5.43;92.83;101566.09;683165;28;1702;-55
2021/10/18 01:06:30;;;;;;;8.40;6.35;;;;;;;5.50;92.72;101561.94;683984;28;1343;-55
2021/10/18 01:06:51;;;;;;;8.98;6.30;;;;;;;5.45;92.54;101567.91;686923;28;1117;-55
2021/10/18 01:07:12;;;;;;;9.85;6.93;;;;;;;5.43;92.48;101566.09;684906;28;4396;-53
2021/10/18 01:07:34;;;;;;;8.33;6.67;;;;;;;5.41;92.39;101568.63;683948;28;1292;-55
2021/10/18 01:07:55;;;;;;;8.85;6.43;;;;;;;5.43;92.78;101566.09;683097;28;2145;-56
2021/10/18 01:08:15;;;;;;;7.87;6.07;;;;;;;5.44;92.91;101568.72;683785;28;1103;-55
2021/10/18 01:08:36;;;;;;;7.63;6.20;;;;;;;5.52;92.90;101558.56;683704;28;1554;-56
2021/10/18 01:08:56;;;;;;;7.77;5.90;;;;;;;5.63;92.48;101566.69;683957;28;1279;-53
2021/10/18 01:09:16;;;;;;;7.55;6.00;;;;;;;5.74;92.29;101561.81;684472;28;1099;-57
2021/10/18 01:09:37;;;;;;;8.07;6.30;;;;;;;5.82;91.29;101556.84;688323;28;1245;-52
2021/10/18 01:09:59;;;;;;;8.07;6.30;;;;;;;5.84;90.98;101563.81;686508;28;4422;-54
2021/10/18 01:10:19;;;;;;;7.63;6.10;;;;;;;5.84;90.93;101563.81;686574;28;1155;-53
2021/10/18 01:10:40;;;;;;;7.73;6.40;;;;;;;5.76;90.90;101571.41;686416;28;1306;-56
2021/10/18 01:11:02;;;;;;;8.15;6.50;;;;;;;5.67;91.37;101565.06;683885;28;3198;-56
2021/10/18 01:11:23;;;;;;;8.18;6.70;;;;;;;5.62;91.45;101563.22;682753;28;1177;-56
2021/10/18 01:11:43;;;;;;;7.88;6.57;;;;;;;5.58;92.09;101565.66;683413;28;1257;-57
2021/10/18 01:12:04;;;;;;;7.70;6.53;;;;;;;5.60;91.76;101557.09;684878;28;1173;-52
2021/10/18 01:12:24;;;;;;;8.43;6.55;;;;;;;5.57;91.81;101561.31;684088;28;1255;-52
2021/10/18 01:12:44;;;;;;;7.53;6.32;;;;;;;5.57;91.48;101561.31;681649;28;1356;-55
2021/10/18 01:13:05;;;;;;;7.57;6.30;;;;;;;5.56;92.00;101562.13;680651;28;4325;-55
2021/10/18 01:13:25;;;;;;;7.20;6.30;;;;;;;5.53;92.08;101562.06;681574;28;1069;-56
2021/10/18 01:13:46;;;;;;;8.95;6.65;;;;;;;5.50;92.33;101562.84;681643;28;1145;-55
2021/10/18 01:14:07;;;;;;;8.93;6.72;;;;;;;5.48;92.56;101564.50;682694;28;3452;-55
2021/10/18 01:14:28;;;;;;;10.52;6.63;;;;;;;5.46;92.45;101564.44;680616;28;1298;-56
2021/10/18 01:14:48;;;;;;;9.77;6.77;;;;;;;5.41;92.92;101573.81;682121;28;1274;-56
2021/10/18 01:15:09;;;;;;;8.23;6.53;;;;;;;5.37;93.05;101571.97;684266;28;1211;-52
2021/10/18 01:15:29;;;;;;;8.40;6.85;;;;;;;5.31;93.74;101571.75;684936;28;1362;-56
2021/10/18 01:15:50;;;;;;;9.03;6.80;;;;;;;5.28;93.20;101575.13;683895;28;1136;-52
2021/10/18 01:16:10;;;;;;;8.98;6.47;;;;;;;5.27;93.39;101572.50;684661;28;4587;-55
2021/10/18 01:16:30;;;;;;;8.47;6.90;;;;;;;5.27;93.10;101570.81;686528;28;1343;-55
2021/10/18 01:16:51;;;;;;;8.02;6.53;;;;;;;5.27;93.10;101573.38;687240;28;1146;-55
2021/10/18 01:17:11;;;;;;;8.57;6.60;;;;;;;5.23;93.56;101581.91;685909;28;3186;-56
2021/10/18 01:17:32;;;;;;;9.48;6.88;;;;;;;5.18;93.85;101579.97;683528;28;4535;-55
2021/10/18 01:17:52;;;;;;;8.87;6.80;;;;;;;5.19;94.02;101568.78;684192;28;1311;-54
2021/10/18 01:18:12;;;;;;;8.32;6.50;;;;;;;5.23;94.01;101575.81;680878;28;1335;-55
2021/10/18 01:18:33;;;;;;;8.53;6.70;;;;;;;5.21;93.99;101570.59;681421;28;1180;-55
2021/10/18 01:18:54;;;;;;;8.85;6.50;;;;;;;5.18;94.49;101577.38;680777;28;1003;-55
2021/10/18 01:19:22;;;;;;;8.50;6.80;;;;;;;5.24;93.77;101581.03;682125;28;4443;-53
2021/10/18 01:19:42;;;;;;;7.88;6.72;;;;;;;5.36;93.44;101574.47;686384;28;1570;-54
2021/10/18 01:20:08;;;;;;;7.85;6.47;;;;;;;5.41;93.14;101571.22;682871;28;4071;-55
2021/10/18 01:20:33;;;;;;;8.40;6.53;;;;;;;5.50;92.35;101569.72;683388;28;1489;-56
2021/10/18 01:20:53;;;;;;;8.35;6.47;;;;;;;5.52;92.14;101568.94;682931;28;1386;-55
2021/10/18 01:21:13;;;;;;;8.00;6.50;;;;;;;5.48;91.52;101569.69;684866;28;1335;-56
2021/10/18 01:21:34;;;;;;;7.85;6.55;;;;;;;5.41;92.17;101573.81;683916;28;1423;-55
2021/10/18 01:21:57;;;;;;;9.23;7.00;;;;;;;5.40;92.31;101574.66;681752;28;1511;-57
2021/10/18 01:22:18;;;;;;;8.65;7.07;;;;;;;5.39;92.43;101575.47;684004;28;4567;-55
2021/10/18 01:22:39;;;;;;;9.15;6.72;;;;;;;5.37;92.36;101571.97;681211;28;1257;-54
2021/10/18 01:23:00;;;;;;;9.13;6.47;;;;;;;5.37;92.60;101571.97;681255;28;3580;-57
2021/10/18 01:23:20;;;;;;;9.10;6.50;;;;;;;5.32;92.70;101573.53;680945;28;3339;-55
2021/10/18 01:23:40;;;;;;;8.18;6.82;;;;;;;5.27;92.62;101577.69;681099;28;995;-55
2021/10/18 01:24:01;;;;;;;8.27;6.97;;;;;;;5.22;93.13;101571.47;683042;28;1947;-56
2021/10/18 01:24:21;;;;;;;9.32;7.13;;;;;;;5.15;93.82;101575.59;683917;28;1200;-53
2021/10/18 01:24:42;;;;;;;9.50;7.10;;;;;;;5.13;93.81;101576.38;686287;28;1196;-56
2021/10/18 01:25:02;;;;;;;9.53;6.93;;;;;;;5.16;94.05;101571.28;685981;28;4309;-53
2021/10/18 01:25:23;;;;;;;8.43;6.77;;;;;;;5.16;93.57;101577.31;686576;28;1286;-56
2021/10/18 01:25:43;;;;;;;9.45;6.85;;;;;;;5.18;93.91;101582.56;686762;28;1279;-52
2021/10/18 01:26:04;;;;;;;9.07;6.80;;;;;;;5.17;93.45;101573.91;685697;28;1181;-56
2021/10/18 01:26:24;;;;;;;8.23;7.13;;;;;;;5.11;93.79;101569.41;685670;28;3974;-55
2021/10/18 01:26:45;;;;;;;9.17;6.93;;;;;;;5.09;94.17;101572.78;683389;28;973;-53
2021/10/18 01:27:05;;;;;;;9.13;6.90;;;;;;;5.05;94.30;101576.09;682366;28;1284;-56
2021/10/18 01:27:26;;;;;;;8.93;6.88;;;;;;;5.00;94.08;101578.56;684505;28;1249;-53
2021/10/18 01:27:46;;;;;;;8.10;6.80;;;;;;;5.02;94.23;101574.28;683701;28;1209;-57
2021/10/18 01:28:07;;;;;;;7.85;6.70;;;;;;;5.07;94.39;101577.06;683681;28;4850;-56
2021/10/18 01:28:27;;;;;;;8.25;6.88;;;;;;;5.07;93.62;101577.91;682797;28;1318;-56
2021/10/18 01:28:48;;;;;;;8.83;7.03;;;;;;;5.07;93.78;101572.75;686252;28;1112;-53
2021/10/18 01:29:08;;;;;;;8.90;6.83;;;;;;;5.11;94.35;101574.59;683521;28;1200;-56
2021/10/18 01:29:34;;;;;;;8.75;6.93;;;;;;;5.15;94.11;101575.59;683411;28;3862;-55
2021/10/18 01:29:54;;;;;;;8.43;7.07;;;;;;;5.11;94.41;101574.59;683246;28;1197;-55
2021/10/18 01:30:15;;;;;;;9.43;7.00;;;;;;;5.06;94.49;101576.16;683213;28;1355;-55
2021/10/18 01:30:35;;;;;;;8.88;6.90;;;;;;;5.05;94.16;101571.81;684081;28;1061;-52
2021/10/18 01:30:55;;;;;;;7.80;6.40;;;;;;;5.07;93.89;101564.97;684614;28;1113;-56
2021/10/18 01:31:16;;;;;;;8.25;6.70;;;;;;;5.14;93.68;101570.31;686679;28;4454;-54
2021/10/18 01:31:40;;;;;;;9.37;6.90;;;;;;;5.18;93.09;101569.59;683372;28;1179;-57
2021/10/18 01:32:01;;;;;;;8.75;6.53;;;;;;;5.24;93.06;101572.41;683666;28;1264;-54
2021/10/18 01:32:21;;;;;;;8.52;6.60;;;;;;;5.23;92.67;101573.22;684140;28;3905;-55
2021/10/18 01:32:43;;;;;;;7.72;6.45;;;;;;;5.17;92.52;101563.53;682778;28;3669;-53
2021/10/18 01:33:03;;;;;;;7.05;6.10;;;;;;;5.19;92.46;101564.50;683709;28;1112;-54
2021/10/18 01:33:24;;;;;;;8.05;6.60;;;;;;;5.23;92.69;101570.63;684705;28;1210;-52
2021/10/18 01:33:44;;;;;;;9.33;6.47;;;;;;;5.27;92.69;101562.13;686551;28;1052;-56
2021/10/18 01:34:05;;;;;;;8.13;6.15;;;;;;;5.26;92.43;101560.34;684740;28;4487;-51
2021/10/18 01:34:26;;;;;;;8.60;6.63;;;;;;;5.24;92.80;101568.09;683919;28;1169;-54
2021/10/18 01:34:47;;;;;;;7.75;6.32;;;;;;;5.21;92.68;101567.13;683100;28;1335;-54
2021/10/18 01:35:08;;;;;;;7.85;6.32;;;;;;;5.14;92.26;101567.72;682410;28;1380;-54
2021/10/18 01:35:31;;;;;;;9.60;6.68;;;;;;;5.03;93.05;101570.88;681742;28;3279;-55
2021/10/18 01:35:52;;;;;;;9.03;6.80;;;;;;;4.98;93.04;101571.56;681877;28;3810;-54
2021/10/18 01:36:12;;;;;;;8.87;6.80;;;;;;;4.95;93.82;101570.63;681665;28;1642;-57
2021/10/18 01:36:33;;;;;;;8.20;6.60;;;;;;;4.90;94.30;101568.69;678065;29;1147;-54
2021/10/18 01:36:59;;;;;;;8.40;7.05;;;;;;;4.84;94.88;101568.53;679567;28;1791;-55
2021/10/18 01:37:20;;;;;;;9.20;6.95;;;;;;;4.80;94.91;101572.69;681410;28;4914;-54
2021/10/18 01:37:40;;;;;;;8.65;7.30;;;;;;;4.80;94.87;101571.84;680625;28;1276;-52
2021/10/18 01:38:01;;;;;;;9.43;7.43;;;;;;;4.77;95.48;101576.06;680449;28;1183;-55
2021/10/18 01:38:21;;;;;;;9.37;6.90;;;;;;;4.83;95.08;101574.53;681838;28;1227;-56
2021/10/18 01:38:41;;;;;;;9.13;6.77;;;;;;;4.81;95.18;101576.19;683213;28;3229;-55
2021/10/18 01:39:02;;;;;;;8.67;6.90;;;;;;;4.83;94.60;101578.00;684089;28;1278;-56
2021/10/18 01:39:23;;;;;;;8.25;6.90;;;;;;;4.81;94.66;101578.78;683180;28;3389;-53
2021/10/18 01:39:43;;;;;;;8.98;7.10;;;;;;;4.80;95.04;101583.06;684088;28;1261;-56
2021/10/18 01:40:08;;;;;;;7.80;6.87;;;;;;;4.89;94.86;101587.69;683675;28;4411;-54
2021/10/18 01:40:29;;;;;;;8.68;6.60;;;;;;;4.99;94.10;101578.50;684022;28;1010;-55
2021/10/18 01:40:49;;;;;;;9.05;6.65;;;;;;;5.05;94.08;101587.38;681531;28;1134;-56
2021/10/18 01:41:10;;;;;;;9.40;6.67;;;;;;;5.11;93.96;101586.69;681415;28;1201;-56